Time;durP1;ratioP1;P1;durP2;ratioP2;P2;SDS_P1;SDS_P2;PMS_P1;PMS_P2;Temp;Humidity;BMP_temperature;BMP_pressure;BME280_temperature;BME280_humidity;BME280_pressure;Samples;Min_cycle;Max_cycle;Signal;HPM_P1;HPM_P2
2022/03/04 00:01:23;;;;;;;;;;;;;;;;;;5011993;28;19932;-45
2022/03/04 00:03:48;;;;;;;;;;;;;;;;;;5016396;28;19913;-48
2022/03/04 00:06:14;;;;;;;;;;;;;;;;;;5014987;28;19937;-48
2022/03/04 00:08:39;;;;;;;;;;;;;;;;;;5013555;28;20267;-44
2022/03/04 00:11:04;;;;;;;;;;;;;;;;;;5014248;28;19971;-48
2022/03/04 00:13:29;;;;;;;;;;;;;;;;;;5015544;28;19928;-47
2022/03/04 00:15:54;;;;;;;;;;;;;;;;;;5014748;28;19920;-44
2022/03/04 00:18:20;;;;;;;;;;;;;;;;;;5016150;28;19975;-51
2022/03/04 00:20:45;;;;;;;;;;;;;;;;;;5009756;28;20667;-46
2022/03/04 00:23:10;;;;;;;;;;;;;;;;;;5031610;28;20008;-46
2022/03/04 00:25:35;;;;;;;;;;;;;;;;;;5012668;28;19921;-49
2022/03/04 00:28:00;;;;;;;;;;;;;;;;;;5015210;28;20460;-43
2022/03/04 00:30:25;;;;;;;;;;;;;;;;;;5018517;28;19921;-45
2022/03/04 00:32:51;;;;;;;;;;;;;;;;;;5013095;28;20288;-45
2022/03/04 00:35:16;;;;;;;;;;;;;;;;;;5014978;28;20429;-42
2022/03/04 00:37:41;;;;;;;;;;;;;;;;;;5016040;28;19917;-44
2022/03/04 00:40:06;;;;;;;;;;;;;;;;;;5010640;28;20715;-43
2022/03/04 00:42:31;;;;;;;;;;;;;;;;;;5015033;28;20044;-46
2022/03/04 00:44:56;;;;;;;;;;;;;;;;;;5015274;28;20399;-43
2022/03/04 00:47:22;;;;;;;;;;;;;;;;;;5017534;28;19991;-45
2022/03/04 00:49:47;;;;;;;;;;;;;;;;;;5015494;28;19944;-41
2022/03/04 00:52:12;;;;;;;;;;;;;;;;;;5014730;28;19925;-46
2022/03/04 00:54:37;;;;;;;;;;;;;;;;;;5015390;28;20003;-45
2022/03/04 00:57:02;;;;;;;;;;;;;;;;;;5012790;28;19921;-46
2022/03/04 00:59:27;;;;;;;;;;;;;;;;;;5013157;28;20018;-43
2022/03/04 01:01:52;;;;;;;;;;;;;;;;;;5015514;28;19952;-44
2022/03/04 01:04:18;;;;;;;;;;;;;;;;;;5015241;28;20061;-45
2022/03/04 01:06:43;;;;;;;;;;;;;;;;;;5010558;28;19925;-43
2022/03/04 01:09:08;;;;;;;;;;;;;;;;;;5013057;28;20015;-43
2022/03/04 01:11:33;;;;;;;;;;;;;;;;;;5029512;28;19921;-48
2022/03/04 01:13:58;;;;;;;;;;;;;;;;;;5014926;28;19975;-44
2022/03/04 01:16:23;;;;;;;;;;;;;;;;;;5010102;28;20023;-43
2022/03/04 01:18:49;;;;;;;;;;;;;;;;;;5011159;28;19924;-43
2022/03/04 01:21:14;;;;;;;;;;;;;;;;;;5014492;28;20465;-46
2022/03/04 01:23:39;;;;;;;;;;;;;;;;;;5009915;28;19921;-42
2022/03/04 01:26:04;;;;;;;;;;;;;;;;;;5016251;28;19921;-49
2022/03/04 01:28:30;;;;;;;;;;;;;;;;;;5028636;28;19921;-44
2022/03/04 01:30:55;;;;;;;;;;;;;;;;;;5010999;28;19921;-44
2022/03/04 01:33:20;;;;;;;;;;;;;;;;;;5014872;28;19928;-42
2022/03/04 01:35:45;;;;;;;;;;;;;;;;;;5015034;28;19921;-43
2022/03/04 01:38:10;;;;;;;;;;;;;;;;;;5014072;28;19928;-44
2022/03/04 01:40:35;;;;;;;;;;;;;;;;;;5012958;28;19922;-49
2022/03/04 01:43:01;;;;;;;;;;;;;;;;;;5012518;28;19921;-46
2022/03/04 01:45:26;;;;;;;;;;;;;;;;;;5012835;28;19929;-43
2022/03/04 01:47:51;;;;;;;;;;;;;;;;;;5012508;28;19928;-44
2022/03/04 01:50:16;;;;;;;;;;;;;;;;;;5011784;28;20446;-44
2022/03/04 01:52:42;;;;;;;;;;;;;;;;;;5015641;28;20019;-45
2022/03/04 01:55:08;;;;;;;;;;;;;;;;;;5014678;28;19929;-43
2022/03/04 01:57:33;;;;;;;;;;;;;;;;;;5030337;28;19945;-49
2022/03/04 01:59:58;;;;;;;;;;;;;;;;;;5015560;28;20450;-45
2022/03/04 02:02:23;;;;;;;;;;;;;;;;;;5016033;28;19925;-44
2022/03/04 02:04:49;;;;;;;;;;;;;;;;;;5011504;28;20311;-47
2022/03/04 02:07:14;;;;;;;;;;;;;;;;;;5014794;28;20533;-43
2022/03/04 02:09:39;;;;;;;;;;;;;;;;;;5013504;28;19918;-46
2022/03/04 02:12:05;;;;;;;;;;;;;;;;;;5013955;28;19918;-46
2022/03/04 02:14:30;;;;;;;;;;;;;;;;;;5017546;28;20016;-46
2022/03/04 02:16:55;;;;;;;;;;;;;;;;;;5018921;28;19918;-43
2022/03/04 02:19:20;;;;;;;;;;;;;;;;;;5010686;28;19922;-46
2022/03/04 02:21:45;;;;;;;;;;;;;;;;;;5011930;28;19921;-46
2022/03/04 02:24:10;;;;;;;;;;;;;;;;;;5019688;28;19995;-47
2022/03/04 02:26:36;;;;;;;;;;;;;;;;;;5017259;28;19932;-49
2022/03/04 02:29:01;;;;;;;;;;;;;;;;;;5021360;28;19921;-44
2022/03/04 02:31:26;;;;;;;;;;;;;;;;;;5016528;28;19928;-44
2022/03/04 02:33:51;;;;;;;;;;;;;;;;;;5015892;28;20028;-42
2022/03/04 02:36:16;;;;;;;;;;;;;;;;;;5015567;28;19917;-45
2022/03/04 02:38:41;;;;;;;;;;;;;;;;;;5014474;28;19921;-46
2022/03/04 02:41:07;;;;;;;;;;;;;;;;;;5013478;28;19929;-46
2022/03/04 02:43:32;;;;;;;;;;;;;;;;;;5020329;28;20012;-46
2022/03/04 02:45:57;;;;;;;;;;;;;;;;;;5012316;28;20407;-42
2022/03/04 02:48:22;;;;;;;;;;;;;;;;;;5018979;28;20011;-43
2022/03/04 02:50:47;;;;;;;;;;;;;;;;;;5015276;28;19921;-42
2022/03/04 02:53:12;;;;;;;;;;;;;;;;;;5015724;28;20428;-45
2022/03/04 02:55:37;;;;;;;;;;;;;;;;;;5016982;28;19924;-43
2022/03/04 02:58:03;;;;;;;;;;;;;;;;;;5012858;28;19917;-45
2022/03/04 03:00:28;;;;;;;;;;;;;;;;;;5019679;28;19957;-47
2022/03/04 03:02:53;;;;;;;;;;;;;;;;;;5034083;28;19921;-48
2022/03/04 03:05:18;;;;;;;;;;;;;;;;;;5015749;28;20241;-43
2022/03/04 03:07:43;;;;;;;;;;;;;;;;;;5014645;28;19921;-45
2022/03/04 03:10:09;;;;;;;;;;;;;;;;;;5017140;28;19925;-44
2022/03/04 03:12:34;;;;;;;;;;;;;;;;;;5016207;28;20441;-44
2022/03/04 03:14:59;;;;;;;;;;;;;;;;;;5009285;28;19929;-44
2022/03/04 03:17:24;;;;;;;;;;;;;;;;;;5017990;28;20397;-44
2022/03/04 03:19:49;;;;;;;;;;;;;;;;;;5015997;28;19920;-45
2022/03/04 03:22:18;;;;;;;;;;;;;;;;;;5014542;28;20341;-46
2022/03/04 03:24:43;;;;;;;;;;;;;;;;;;5011759;28;20393;-46
2022/03/04 03:27:08;;;;;;;;;;;;;;;;;;5014211;28;19927;-43
2022/03/04 03:29:34;;;;;;;;;;;;;;;;;;5017010;28;20385;-43
2022/03/04 03:31:59;;;;;;;;;;;;;;;;;;5012891;28;19925;-45
2022/03/04 03:34:24;;;;;;;;;;;;;;;;;;5014955;28;19917;-44
2022/03/04 03:36:49;;;;;;;;;;;;;;;;;;5015880;28;19932;-42
2022/03/04 03:39:14;;;;;;;;;;;;;;;;;;5016282;28;19917;-45
2022/03/04 03:41:39;;;;;;;;;;;;;;;;;;5032930;28;19929;-45
2022/03/04 03:44:04;;;;;;;;;;;;;;;;;;5012878;28;19967;-44
2022/03/04 03:46:30;;;;;;;;;;;;;;;;;;5014359;28;19987;-41
2022/03/04 03:48:55;;;;;;;;;;;;;;;;;;5010834;28;19928;-42
2022/03/04 03:51:20;;;;;;;;;;;;;;;;;;5014160;28;20428;-43
2022/03/04 03:53:45;;;;;;;;;;;;;;;;;;5013622;28;19913;-42
2022/03/04 03:56:10;;;;;;;;;;;;;;;;;;5016347;28;19924;-44
2022/03/04 03:58:35;;;;;;;;;;;;;;;;;;5012811;28;19983;-43
2022/03/04 04:01:00;;;;;;;;;;;;;;;;;;5013221;28;20756;-44
2022/03/04 04:03:26;;;;;;;;;;;;;;;;;;5012310;28;19921;-43
2022/03/04 04:05:51;;;;;;;;;;;;;;;;;;5013939;28;19960;-41
2022/03/04 04:08:16;;;;;;;;;;;;;;;;;;5025944;28;20005;-43
2022/03/04 04:10:41;;;;;;;;;;;;;;;;;;5017892;28;19937;-45
2022/03/04 04:13:06;;;;;;;;;;;;;;;;;;5013327;28;19921;-46
2022/03/04 04:15:31;;;;;;;;;;;;;;;;;;5027728;28;19918;-43
2022/03/04 04:17:57;;;;;;;;;;;;;;;;;;5014931;28;19925;-42
2022/03/04 04:20:22;;;;;;;;;;;;;;;;;;5012909;28;19975;-42
2022/03/04 04:22:47;;;;;;;;;;;;;;;;;;5017117;28;19928;-40
2022/03/04 04:25:13;;;;;;;;;;;;;;;;;;5009325;28;19967;-41
2022/03/04 04:27:38;;;;;;;;;;;;;;;;;;5015831;28;19917;-40
2022/03/04 04:30:03;;;;;;;;;;;;;;;;;;5013415;28;19925;-43
2022/03/04 04:32:28;;;;;;;;;;;;;;;;;;5012068;28;20394;-44
2022/03/04 04:34:53;;;;;;;;;;;;;;;;;;5014346;28;19917;-46
2022/03/04 04:37:18;;;;;;;;;;;;;;;;;;5010149;28;19940;-44
2022/03/04 04:39:43;;;;;;;;;;;;;;;;;;5009366;28;20468;-45
2022/03/04 04:42:09;;;;;;;;;;;;;;;;;;5010750;28;19918;-45
2022/03/04 04:44:34;;;;;;;;;;;;;;;;;;5014944;28;20826;-40
2022/03/04 04:46:59;;;;;;;;;;;;;;;;;;5007500;28;19925;-43
2022/03/04 04:49:25;;;;;;;;;;;;;;;;;;5015159;28;19975;-42
2022/03/04 04:51:50;;;;;;;;;;;;;;;;;;5005561;28;19933;-43
2022/03/04 04:54:15;;;;;;;;;;;;;;;;;;5017086;28;19917;-40
2022/03/04 04:56:41;;;;;;;;;;;;;;;;;;5015786;28;20327;-44
2022/03/04 04:59:06;;;;;;;;;;;;;;;;;;5016650;28;19917;-41
2022/03/04 05:01:31;;;;;;;;;;;;;;;;;;5019067;28;20024;-44
2022/03/04 05:03:56;;;;;;;;;;;;;;;;;;5016241;28;19928;-42
2022/03/04 05:06:21;;;;;;;;;;;;;;;;;;5013402;28;20400;-44
2022/03/04 05:08:46;;;;;;;;;;;;;;;;;;5015024;28;20687;-42
2022/03/04 05:11:12;;;;;;;;;;;;;;;;;;5014836;28;19925;-43
2022/03/04 05:13:37;;;;;;;;;;;;;;;;;;5014802;28;19933;-42
2022/03/04 05:16:02;;;;;;;;;;;;;;;;;;5015989;28;20381;-42
2022/03/04 05:18:27;;;;;;;;;;;;;;;;;;5015543;28;19925;-44
2022/03/04 05:20:53;;;;;;;;;;;;;;;;;;5013979;28;19913;-41
2022/03/04 05:26:01;;;;;;;;;;;;;;;;;;5014228;28;20117;-47
2022/03/04 05:28:26;;;;;;;;;;;;;;;;;;5014026;28;20415;-44
2022/03/04 05:30:52;;;;;;;;;;;;;;;;;;5020875;28;19928;-42
2022/03/04 05:33:17;;;;;;;;;;;;;;;;;;5018210;28;19921;-46
2022/03/04 05:35:42;;;;;;;;;;;;;;;;;;5015320;28;19921;-44
2022/03/04 05:38:07;;;;;;;;;;;;;;;;;;5015733;28;20012;-45
2022/03/04 05:40:32;;;;;;;;;;;;;;;;;;5019104;28;19921;-45
2022/03/04 05:42:58;;;;;;;;;;;;;;;;;;5017995;28;19917;-45
2022/03/04 05:45:23;;;;;;;;;;;;;;;;;;5018451;28;19944;-44
2022/03/04 05:47:48;;;;;;;;;;;;;;;;;;5019314;28;19922;-46
2022/03/04 05:50:14;;;;;;;;;;;;;;;;;;5017248;28;20533;-45
2022/03/04 05:52:39;;;;;;;;;;;;;;;;;;5033380;28;19921;-44
2022/03/04 05:55:04;;;;;;;;;;;;;;;;;;5004647;28;20388;-43
2022/03/04 05:57:30;;;;;;;;;;;;;;;;;;5016705;28;19980;-44
2022/03/04 05:59:58;;;;;;;;;;;;;;;;;;5021604;28;20208;-45
2022/03/04 06:02:25;;;;;;;;;;;;;;;;;;5018217;28;20416;-43
2022/03/04 06:04:50;;;;;;;;;;;;;;;;;;5017504;28;20341;-44
2022/03/04 06:07:15;;;;;;;;;;;;;;;;;;5019762;28;19932;-47
2022/03/04 06:09:40;;;;;;;;;;;;;;;;;;5022057;28;19925;-41
2022/03/04 06:12:05;;;;;;;;;;;;;;;;;;5017100;28;19921;-41
2022/03/04 06:14:30;;;;;;;;;;;;;;;;;;5017676;28;20292;-48
2022/03/04 06:16:56;;;;;;;;;;;;;;;;;;5011737;28;19917;-48
2022/03/04 06:19:21;;;;;;;;;;;;;;;;;;5020304;28;19933;-45
2022/03/04 06:21:46;;;;;;;;;;;;;;;;;;5018473;28;19952;-43
2022/03/04 06:24:11;;;;;;;;;;;;;;;;;;5015037;28;20086;-43
2022/03/04 06:26:36;;;;;;;;;;;;;;;;;;5016462;28;20906;-42
2022/03/04 06:29:01;;;;;;;;;;;;;;;;;;5016917;28;20435;-43
2022/03/04 06:31:27;;;;;;;;;;;;;;;;;;5018003;28;19923;-43
2022/03/04 06:33:52;;;;;;;;;;;;;;;;;;5019677;28;19926;-42
2022/03/04 06:36:17;;;;;;;;;;;;;;;;;;5012576;28;19921;-45
2022/03/04 06:38:43;;;;;;;;;;;;;;;;;;5012653;28;19921;-42
2022/03/04 06:41:08;;;;;;;;;;;;;;;;;;5012363;28;19960;-43
2022/03/04 06:43:33;;;;;;;;;;;;;;;;;;5013274;28;20124;-46
2022/03/04 06:45:58;;;;;;;;;;;;;;;;;;5017345;28;20020;-44
2022/03/04 06:48:23;;;;;;;;;;;;;;;;;;5013328;28;19926;-42
2022/03/04 06:50:49;;;;;;;;;;;;;;;;;;5017660;28;19952;-42
2022/03/04 06:53:14;;;;;;;;;;;;;;;;;;5014424;28;19928;-44
2022/03/04 06:55:39;;;;;;;;;;;;;;;;;;5013746;28;20004;-46
2022/03/04 06:58:04;;;;;;;;;;;;;;;;;;5015667;28;20384;-43
2022/03/04 07:00:29;;;;;;;;;;;;;;;;;;5015857;28;19917;-42
2022/03/04 07:02:54;;;;;;;;;;;;;;;;;;5020859;28;20353;-43
2022/03/04 07:05:23;;;;;;;;;;;;;;;;;;5015180;28;19928;-45
2022/03/04 07:07:48;;;;;;;;;;;;;;;;;;5016890;28;20326;-41
2022/03/04 07:10:13;;;;;;;;;;;;;;;;;;5014614;28;20008;-43
2022/03/04 07:12:38;;;;;;;;;;;;;;;;;;5015395;28;19921;-42
2022/03/04 07:15:03;;;;;;;;;;;;;;;;;;5012264;28;20444;-43
2022/03/04 07:17:29;;;;;;;;;;;;;;;;;;5009772;28;19926;-41
2022/03/04 07:19:54;;;;;;;;;;;;;;;;;;5020492;28;20491;-45
2022/03/04 07:22:19;;;;;;;;;;;;;;;;;;5013387;28;19967;-48
2022/03/04 07:24:44;;;;;;;;;;;;;;;;;;5014408;28;20000;-43
2022/03/04 07:27:09;;;;;;;;;;;;;;;;;;5020217;28;19932;-45
2022/03/04 07:29:34;;;;;;;;;;;;;;;;;;5011392;28;20373;-45
2022/03/04 07:32:00;;;;;;;;;;;;;;;;;;5013443;28;19928;-44
2022/03/04 07:34:25;;;;;;;;;;;;;;;;;;5011693;28;20439;-43
2022/03/04 07:36:50;;;;;;;;;;;;;;;;;;5010856;28;19953;-44
2022/03/04 07:39:15;;;;;;;;;;;;;;;;;;5012294;28;19969;-48
2022/03/04 07:41:40;;;;;;;;;;;;;;;;;;5010951;28;20372;-45
2022/03/04 07:44:06;;;;;;;;;;;;;;;;;;5013147;28;19948;-46
2022/03/04 07:46:31;;;;;;;;;;;;;;;;;;5014662;28;20447;-43
2022/03/04 07:48:56;;;;;;;;;;;;;;;;;;5013654;28;20839;-44
2022/03/04 07:51:21;;;;;;;;;;;;;;;;;;5013550;28;19922;-45
2022/03/04 07:53:46;;;;;;;;;;;;;;;;;;5017276;28;19986;-47
2022/03/04 07:56:11;;;;;;;;;;;;;;;;;;5010916;28;19922;-47
2022/03/04 07:58:36;;;;;;;;;;;;;;;;;;5016224;28;19917;-44
2022/03/04 08:01:02;;;;;;;;;;;;;;;;;;5016232;28;20007;-40
2022/03/04 08:03:27;;;;;;;;;;;;;;;;;;5017745;28;20501;-40
2022/03/04 08:05:52;;;;;;;;;;;;;;;;;;5014468;28;19932;-40
2022/03/04 08:08:17;;;;;;;;;;;;;;;;;;5010087;28;19917;-43
2022/03/04 08:10:42;;;;;;;;;;;;;;;;;;5012581;28;19921;-41
2022/03/04 08:13:07;;;;;;;;;;;;;;;;;;5013573;28;20017;-41
2022/03/04 08:15:33;;;;;;;;;;;;;;;;;;5013317;28;19921;-41
2022/03/04 08:17:58;;;;;;;;;;;;;;;;;;5017631;28;20320;-42
2022/03/04 08:20:24;;;;;;;;;;;;;;;;;;5012875;28;19943;-42
2022/03/04 08:22:49;;;;;;;;;;;;;;;;;;5012490;28;19918;-42
2022/03/04 08:25:15;;;;;;;;;;;;;;;;;;5015916;28;20290;-40
2022/03/04 08:27:40;;;;;;;;;;;;;;;;;;5016438;28;19922;-41
2022/03/04 08:30:05;;;;;;;;;;;;;;;;;;5012156;28;20359;-41
2022/03/04 08:32:30;;;;;;;;;;;;;;;;;;5019996;28;20445;-42
2022/03/04 08:34:56;;;;;;;;;;;;;;;;;;5014582;28;20429;-44
2022/03/04 08:37:21;;;;;;;;;;;;;;;;;;5015144;28;19983;-40
2022/03/04 08:39:46;;;;;;;;;;;;;;;;;;5011460;28;20345;-45
2022/03/04 08:42:11;;;;;;;;;;;;;;;;;;5013780;28;19921;-40
2022/03/04 08:44:36;;;;;;;;;;;;;;;;;;5014345;28;20455;-38
2022/03/04 08:47:01;;;;;;;;;;;;;;;;;;5007509;28;19925;-43
2022/03/04 08:49:27;;;;;;;;;;;;;;;;;;5011486;28;19970;-41
2022/03/04 08:51:52;;;;;;;;;;;;;;;;;;5015661;28;19928;-40
2022/03/04 08:54:17;;;;;;;;;;;;;;;;;;5014888;28;20408;-43
2022/03/04 08:56:42;;;;;;;;;;;;;;;;;;5009048;28;19932;-41
2022/03/04 08:59:07;;;;;;;;;;;;;;;;;;5011430;28;20740;-41
2022/03/04 09:01:32;;;;;;;;;;;;;;;;;;5010613;28;19963;-40
2022/03/04 09:03:58;;;;;;;;;;;;;;;;;;5012833;28;19921;-42
2022/03/04 09:06:23;;;;;;;;;;;;;;;;;;5016504;28;20314;-43
2022/03/04 09:08:48;;;;;;;;;;;;;;;;;;5015911;28;19928;-42
2022/03/04 09:11:13;;;;;;;;;;;;;;;;;;5015858;28;20349;-43
2022/03/04 09:13:38;;;;;;;;;;;;;;;;;;5012412;28;19921;-41
2022/03/04 09:16:04;;;;;;;;;;;;;;;;;;5015604;28;20051;-40
2022/03/04 09:18:29;;;;;;;;;;;;;;;;;;5017465;28;19928;-40
2022/03/04 09:20:54;;;;;;;;;;;;;;;;;;5014516;28;19957;-41
2022/03/04 09:23:20;;;;;;;;;;;;;;;;;;5016164;28;20352;-41
2022/03/04 09:25:45;;;;;;;;;;;;;;;;;;5015328;28;19921;-40
2022/03/04 09:28:10;;;;;;;;;;;;;;;;;;5016185;28;20001;-43
2022/03/04 09:30:36;;;;;;;;;;;;;;;;;;5013386;28;19917;-38
2022/03/04 09:33:01;;;;;;;;;;;;;;;;;;5013191;28;19928;-40
2022/03/04 09:35:26;;;;;;;;;;;;;;;;;;5016896;28;19969;-41
2022/03/04 09:37:51;;;;;;;;;;;;;;;;;;5030232;28;20021;-39
2022/03/04 09:40:16;;;;;;;;;;;;;;;;;;5018602;28;19917;-39
2022/03/04 09:42:42;;;;;;;;;;;;;;;;;;5016988;28;20105;-40
2022/03/04 09:45:07;;;;;;;;;;;;;;;;;;5019002;28;19921;-41
2022/03/04 09:47:32;;;;;;;;;;;;;;;;;;5020459;28;20000;-40
2022/03/04 09:49:58;;;;;;;;;;;;;;;;;;5017707;28;19924;-40
2022/03/04 09:52:23;;;;;;;;;;;;;;;;;;5012706;28;20588;-40
2022/03/04 09:54:48;;;;;;;;;;;;;;;;;;5015998;28;19956;-42
2022/03/04 09:57:13;;;;;;;;;;;;;;;;;;5017104;28;19921;-42
2022/03/04 09:59:38;;;;;;;;;;;;;;;;;;5015834;28;19921;-41
2022/03/04 10:02:04;;;;;;;;;;;;;;;;;;5014540;28;20584;-41
2022/03/04 10:04:29;;;;;;;;;;;;;;;;;;5013693;28;20030;-38
2022/03/04 10:06:54;;;;;;;;;;;;;;;;;;5018144;28;20381;-41
2022/03/04 10:09:19;;;;;;;;;;;;;;;;;;5018295;28;19925;-39
2022/03/04 10:11:45;;;;;;;;;;;;;;;;;;5017595;28;19964;-39
2022/03/04 10:14:10;;;;;;;;;;;;;;;;;;5013992;28;20415;-42
2022/03/04 10:16:35;;;;;;;;;;;;;;;;;;5012046;28;19957;-42
2022/03/04 10:19:01;;;;;;;;;;;;;;;;;;5015036;28;20018;-43
2022/03/04 10:21:26;;;;;;;;;;;;;;;;;;5013623;28;20427;-42
2022/03/04 10:23:51;;;;;;;;;;;;;;;;;;5014560;28;19937;-40
2022/03/04 10:26:16;;;;;;;;;;;;;;;;;;5016441;28;19932;-41
2022/03/04 10:28:42;;;;;;;;;;;;;;;;;;5014740;28;20489;-40
2022/03/04 10:31:07;;;;;;;;;;;;;;;;;;5011202;28;20344;-40
2022/03/04 10:33:32;;;;;;;;;;;;;;;;;;5012518;28;19928;-40
2022/03/04 10:35:57;;;;;;;;;;;;;;;;;;5027826;28;19948;-44
2022/03/04 10:38:22;;;;;;;;;;;;;;;;;;5016037;28;19921;-43
2022/03/04 10:40:48;;;;;;;;;;;;;;;;;;5012733;28;19921;-39
2022/03/04 10:43:13;;;;;;;;;;;;;;;;;;5014091;28;20387;-42
2022/03/04 10:45:40;;;;;;;;;;;;;;;;;;5019160;28;19944;-39
2022/03/04 10:48:07;;;;;;;;;;;;;;;;;;5017854;28;20304;-40
2022/03/04 10:50:33;;;;;;;;;;;;;;;;;;5013811;28;19921;-40
2022/03/04 10:52:59;;;;;;;;;;;;;;;;;;5012443;28;19942;-42
2022/03/04 10:55:24;;;;;;;;;;;;;;;;;;5012872;28;19999;-45
2022/03/04 10:57:49;;;;;;;;;;;;;;;;;;5008217;28;19924;-41
2022/03/04 11:00:14;;;;;;;;;;;;;;;;;;5016079;28;20315;-40
2022/03/04 11:02:39;;;;;;;;;;;;;;;;;;5012983;28;19921;-43
2022/03/04 11:05:05;;;;;;;;;;;;;;;;;;5016439;28;19928;-40
2022/03/04 11:07:30;;;;;;;;;;;;;;;;;;5016577;28;20883;-45
2022/03/04 11:09:55;;;;;;;;;;;;;;;;;;5012035;28;19925;-44
2022/03/04 11:12:20;;;;;;;;;;;;;;;;;;5012783;28;19928;-46
2022/03/04 11:14:45;;;;;;;;;;;;;;;;;;5014346;28;19924;-41
2022/03/04 11:17:10;;;;;;;;;;;;;;;;;;5013317;28;20078;-38
2022/03/04 11:19:36;;;;;;;;;;;;;;;;;;5014938;28;19921;-39
2022/03/04 11:22:01;;;;;;;;;;;;;;;;;;5010766;28;20443;-37
2022/03/04 11:24:26;;;;;;;;;;;;;;;;;;5012574;28;19933;-38
2022/03/04 11:26:51;;;;;;;;;;;;;;;;;;5015269;28;19936;-41
2022/03/04 11:29:16;;;;;;;;;;;;;;;;;;5016908;28;20000;-38
2022/03/04 11:31:41;;;;;;;;;;;;;;;;;;5012111;28;19928;-37
2022/03/04 11:34:07;;;;;;;;;;;;;;;;;;5012866;28;20008;-40
2022/03/04 11:36:33;;;;;;;;;;;;;;;;;;5015951;28;20037;-37
2022/03/04 11:38:58;;;;;;;;;;;;;;;;;;5011761;28;19918;-38
2022/03/04 11:41:23;;;;;;;;;;;;;;;;;;5011900;28;19928;-41
2022/03/04 11:43:48;;;;;;;;;;;;;;;;;;5014238;28;19921;-37
2022/03/04 11:46:13;;;;;;;;;;;;;;;;;;5017970;28;19932;-39
2022/03/04 11:48:39;;;;;;;;;;;;;;;;;;5014259;28;20551;-39
2022/03/04 11:51:04;;;;;;;;;;;;;;;;;;5016114;28;19936;-37
2022/03/04 11:53:29;;;;;;;;;;;;;;;;;;5012866;28;19918;-38
2022/03/04 11:55:54;;;;;;;;;;;;;;;;;;5014726;28;20392;-37
2022/03/04 11:58:19;;;;;;;;;;;;;;;;;;5015080;28;19924;-37
2022/03/04 12:00:44;;;;;;;;;;;;;;;;;;5013454;28;20323;-39
2022/03/04 12:03:09;;;;;;;;;;;;;;;;;;5016909;28;19927;-41
2022/03/04 12:05:35;;;;;;;;;;;;;;;;;;5017555;28;19929;-37
2022/03/04 12:08:00;;;;;;;;;;;;;;;;;;5017039;28;19917;-37
2022/03/04 12:10:25;;;;;;;;;;;;;;;;;;5011479;28;19917;-39
2022/03/04 12:12:50;;;;;;;;;;;;;;;;;;5016121;28;20067;-37
2022/03/04 12:15:16;;;;;;;;;;;;;;;;;;5015626;28;20411;-37
2022/03/04 12:17:41;;;;;;;;;;;;;;;;;;5012643;28;19925;-37
2022/03/04 12:20:06;;;;;;;;;;;;;;;;;;5008783;28;20056;-37
2022/03/04 12:22:31;;;;;;;;;;;;;;;;;;5011916;28;19964;-37
2022/03/04 12:24:56;;;;;;;;;;;;;;;;;;5015361;28;19925;-36
2022/03/04 12:27:21;;;;;;;;;;;;;;;;;;5014484;28;19967;-39
2022/03/04 12:29:49;;;;;;;;;;;;;;;;;;5014229;28;19925;-40
2022/03/04 12:32:14;;;;;;;;;;;;;;;;;;5016522;28;20371;-37
2022/03/04 12:34:42;;;;;;;;;;;;;;;;;;5014825;28;20392;-37
2022/03/04 12:37:08;;;;;;;;;;;;;;;;;;5014539;28;20300;-37
2022/03/04 12:39:33;;;;;;;;;;;;;;;;;;5009934;28;19921;-39
2022/03/04 12:41:58;;;;;;;;;;;;;;;;;;5013024;28;19925;-43
2022/03/04 12:44:24;;;;;;;;;;;;;;;;;;5011824;28;20153;-41
2022/03/04 12:46:49;;;;;;;;;;;;;;;;;;4998346;28;19941;-41
2022/03/04 12:49:16;;;;;;;;;;;;;;;;;;5014693;28;20004;-43
2022/03/04 12:51:41;;;;;;;;;;;;;;;;;;5013526;28;19933;-44
2022/03/04 12:54:08;;;;;;;;;;;;;;;;;;5018051;28;19928;-45
2022/03/04 12:56:34;;;;;;;;;;;;;;;;;;5014043;28;19917;-45
2022/03/04 12:58:59;;;;;;;;;;;;;;;;;;5016793;28;20384;-40
2022/03/04 13:01:24;;;;;;;;;;;;;;;;;;5012866;28;19923;-43
2022/03/04 13:03:50;;;;;;;;;;;;;;;;;;5013854;28;19925;-41
2022/03/04 13:06:15;;;;;;;;;;;;;;;;;;5012157;28;19930;-42
2022/03/04 13:08:40;;;;;;;;;;;;;;;;;;5013756;28;20524;-44
2022/03/04 13:11:05;;;;;;;;;;;;;;;;;;5013950;28;20345;-45
2022/03/04 13:13:30;;;;;;;;;;;;;;;;;;5015553;28;19918;-44
2022/03/04 13:15:55;;;;;;;;;;;;;;;;;;5013100;28;20368;-46
2022/03/04 13:18:21;;;;;;;;;;;;;;;;;;5014120;28;19924;-44
2022/03/04 13:20:46;;;;;;;;;;;;;;;;;;5018319;28;19917;-47
2022/03/04 13:23:11;;;;;;;;;;;;;;;;;;5012138;28;19947;-42
2022/03/04 13:25:36;;;;;;;;;;;;;;;;;;5013643;28;19924;-44
2022/03/04 13:28:02;;;;;;;;;;;;;;;;;;5012505;28;19991;-41
2022/03/04 13:30:27;;;;;;;;;;;;;;;;;;5014948;28;19918;-44
2022/03/04 13:32:55;;;;;;;;;;;;;;;;;;5014873;28;20558;-45
2022/03/04 13:35:21;;;;;;;;;;;;;;;;;;5011901;28;20023;-46
2022/03/04 13:37:46;;;;;;;;;;;;;;;;;;5014463;28;20980;-46
2022/03/04 13:40:11;;;;;;;;;;;;;;;;;;5011775;28;19943;-43
2022/03/04 13:42:36;;;;;;;;;;;;;;;;;;5014095;28;19960;-43
2022/03/04 13:45:02;;;;;;;;;;;;;;;;;;5016546;28;19944;-41
2022/03/04 13:47:27;;;;;;;;;;;;;;;;;;5013356;28;19921;-42
2022/03/04 13:49:52;;;;;;;;;;;;;;;;;;5014575;28;19921;-40
2022/03/04 13:52:17;;;;;;;;;;;;;;;;;;5016880;28;19921;-41
2022/03/04 13:54:42;;;;;;;;;;;;;;;;;;5019331;28;20393;-43
2022/03/04 13:57:08;;;;;;;;;;;;;;;;;;5015984;28;20004;-40
2022/03/04 13:59:33;;;;;;;;;;;;;;;;;;5018406;28;20461;-41
2022/03/04 14:01:58;;;;;;;;;;;;;;;;;;5018388;28;19917;-40
2022/03/04 14:04:23;;;;;;;;;;;;;;;;;;5017117;28;19984;-42
2022/03/04 14:06:48;;;;;;;;;;;;;;;;;;5015532;28;20308;-44
2022/03/04 14:09:14;;;;;;;;;;;;;;;;;;5006202;28;20304;-45
2022/03/04 14:11:39;;;;;;;;;;;;;;;;;;5015291;28;20032;-42
2022/03/04 14:14:04;;;;;;;;;;;;;;;;;;5014651;28;19917;-42
2022/03/04 14:16:31;;;;;;;;;;;;;;;;;;5017493;28;20003;-45
2022/03/04 14:18:58;;;;;;;;;;;;;;;;;;5018898;28;19917;-47
2022/03/04 14:21:23;;;;;;;;;;;;;;;;;;5017076;28;20169;-43
2022/03/04 14:23:48;;;;;;;;;;;;;;;;;;5019387;28;20380;-42
2022/03/04 14:26:13;;;;;;;;;;;;;;;;;;5016266;28;19988;-43
2022/03/04 14:29:09;;;;;;;;;;;;;;;;;;5017768;28;19972;-43
2022/03/04 14:31:23;;;;;;;;;;;;;;;;;;5012877;28;19921;-41
2022/03/04 14:33:48;;;;;;;;;;;;;;;;;;5014822;28;19917;-39
2022/03/04 14:36:14;;;;;;;;;;;;;;;;;;5016543;28;19957;-39
2022/03/04 14:38:39;;;;;;;;;;;;;;;;;;5015209;28;20337;-41
2022/03/04 14:41:04;;;;;;;;;;;;;;;;;;5011455;28;20464;-40
2022/03/04 14:43:29;;;;;;;;;;;;;;;;;;5015907;28;19933;-42
2022/03/04 14:45:57;;;;;;;;;;;;;;;;;;5014814;28;19921;-38
2022/03/04 14:48:22;;;;;;;;;;;;;;;;;;5015522;28;19917;-39
2022/03/04 14:50:47;;;;;;;;;;;;;;;;;;5016855;28;19967;-42
2022/03/04 14:53:12;;;;;;;;;;;;;;;;;;5017112;28;19913;-38
2022/03/04 14:55:37;;;;;;;;;;;;;;;;;;5019252;28;19967;-40
2022/03/04 14:58:04;;;;;;;;;;;;;;;;;;5017981;28;20300;-40
2022/03/04 15:00:29;;;;;;;;;;;;;;;;;;5013805;28;20016;-39
2022/03/04 15:02:55;;;;;;;;;;;;;;;;;;5015719;28;20333;-40
2022/03/04 15:05:20;;;;;;;;;;;;;;;;;;5016046;28;19917;-39
2022/03/04 15:07:45;;;;;;;;;;;;;;;;;;5018421;28;19921;-39
2022/03/04 15:10:10;;;;;;;;;;;;;;;;;;5019437;28;19921;-39
2022/03/04 15:12:35;;;;;;;;;;;;;;;;;;5018494;28;19925;-40
2022/03/04 15:15:00;;;;;;;;;;;;;;;;;;5017296;28;19921;-41
2022/03/04 15:17:26;;;;;;;;;;;;;;;;;;5017467;28;19925;-39
2022/03/04 15:19:52;;;;;;;;;;;;;;;;;;5012690;28;19929;-40
2022/03/04 15:22:17;;;;;;;;;;;;;;;;;;5016897;28;19921;-38
2022/03/04 15:24:42;;;;;;;;;;;;;;;;;;5011982;28;20107;-41
2022/03/04 15:27:07;;;;;;;;;;;;;;;;;;5016200;28;20436;-40
2022/03/04 15:29:32;;;;;;;;;;;;;;;;;;5019800;28;19913;-42
2022/03/04 15:32:00;;;;;;;;;;;;;;;;;;5018436;28;20027;-40
2022/03/04 15:34:25;;;;;;;;;;;;;;;;;;5015650;28;19917;-42
2022/03/04 15:36:50;;;;;;;;;;;;;;;;;;5015780;28;19928;-42
2022/03/04 15:39:17;;;;;;;;;;;;;;;;;;5015609;28;20414;-41
2022/03/04 15:41:47;;;;;;;;;;;;;;;;;;5011117;28;19980;-42
2022/03/04 15:44:12;;;;;;;;;;;;;;;;;;5015546;28;19987;-42
2022/03/04 15:46:37;;;;;;;;;;;;;;;;;;5016700;28;19921;-42
2022/03/04 15:49:03;;;;;;;;;;;;;;;;;;5018122;28;19968;-40
2022/03/04 15:51:28;;;;;;;;;;;;;;;;;;5014620;28;19917;-41
2022/03/04 15:53:53;;;;;;;;;;;;;;;;;;5013534;28;20417;-44
2022/03/04 15:56:18;;;;;;;;;;;;;;;;;;5017924;28;19929;-42
2022/03/04 15:58:43;;;;;;;;;;;;;;;;;;5016956;28;19923;-40
2022/03/04 16:01:08;;;;;;;;;;;;;;;;;;5015898;28;19927;-40
2022/03/04 16:03:35;;;;;;;;;;;;;;;;;;5015770;28;19964;-40
2022/03/04 16:06:01;;;;;;;;;;;;;;;;;;5013846;28;19925;-45
2022/03/04 16:08:26;;;;;;;;;;;;;;;;;;5015607;28;19952;-42
2022/03/04 16:10:51;;;;;;;;;;;;;;;;;;5014194;28;19922;-40
2022/03/04 16:13:20;;;;;;;;;;;;;;;;;;5013374;28;20035;-41
2022/03/04 16:15:45;;;;;;;;;;;;;;;;;;5013062;28;19935;-40
2022/03/04 16:18:10;;;;;;;;;;;;;;;;;;5017377;28;19921;-43
2022/03/04 16:20:35;;;;;;;;;;;;;;;;;;5017945;28;19924;-41
2022/03/04 16:23:00;;;;;;;;;;;;;;;;;;5016343;28;20813;-42
2022/03/04 16:25:25;;;;;;;;;;;;;;;;;;5010415;28;19917;-42
2022/03/04 16:27:50;;;;;;;;;;;;;;;;;;5016735;28;19936;-49
2022/03/04 16:30:16;;;;;;;;;;;;;;;;;;5012257;28;19974;-43
2022/03/04 16:32:41;;;;;;;;;;;;;;;;;;5011952;28;19921;-43
2022/03/04 16:35:06;;;;;;;;;;;;;;;;;;5012833;28;19971;-41